Alpachiri, Argentina
Current Conditions -  °F | °C
As of 6:00 AM on Wednesday 22 Oct 2014 (Local Time) from SAZN Reporting Station
Clear Clear  
Wind Chill: 17°   Ceiling: Unl
Heat Index: 17°   Visibility: 6mi
Dew Point:   Wind: 5mph
Humidity: 55%   Direction: 250°WSW
Pressure: 29.88"   Gusts: NA
Location:  37.37°S, 63.77°W
Report Text: SAZN 220900Z 25004KT CAVOK 17/08 Q1012
Loading
Personal Weather Stations






























Interactive Weather Map
Tropical Storm Tracking
New forecast layout! Learn more

10-Day Weather Forecast

Advertisements
Track Severe Weather on mobile